sensor_id;sensor_type;location;lat;lon;timestamp;pressure;altitude;pressure_sealevel;temperature;humidity
13604;BME280;24578;48.264;11.436;2023-02-13T00:01:11;98035.88;;;0.85;100.00
13604;BME280;24578;48.264;11.436;2023-02-13T00:04:12;98040.13;;;0.80;100.00
13604;BME280;24578;48.264;11.436;2023-02-13T00:07:12;98037.59;;;0.71;100.00
13604;BME280;24578;48.264;11.436;2023-02-13T00:10:13;98031.69;;;0.66;100.00
13604;BME280;24578;48.264;11.436;2023-02-13T00:13:14;98018.88;;;0.83;100.00
13604;BME280;24578;48.264;11.436;2023-02-13T00:16:15;98019.75;;;0.77;100.00
13604;BME280;24578;48.264;11.436;2023-02-13T00:19:15;98017.16;;;0.88;100.00
13604;BME280;24578;48.264;11.436;2023-02-13T00:22:16;98012.03;;;0.89;100.00
13604;BME280;24578;48.264;11.436;2023-02-13T00:25:17;98007.84;;;0.82;100.00
13604;BME280;24578;48.264;11.436;2023-02-13T00:28:17;98013.78;;;0.84;100.00
13604;BME280;24578;48.264;11.436;2023-02-13T00:31:20;98007.00;;;0.74;100.00
13604;BME280;24578;48.264;11.436;2023-02-13T00:34:21;98007.84;;;0.79;100.00
13604;BME280;24578;48.264;11.436;2023-02-13T00:37:21;98009.56;;;0.77;100.00
13604;BME280;24578;48.264;11.436;2023-02-13T00:40:22;98012.94;;;0.82;100.00
13604;BME280;24578;48.264;11.436;2023-02-13T00:43:23;98015.47;;;0.85;100.00
13604;BME280;24578;48.264;11.436;2023-02-13T00:46:23;98006.13;;;0.84;100.00
13604;BME280;24578;48.264;11.436;2023-02-13T00:49:24;98011.22;;;0.86;100.00
13604;BME280;24578;48.264;11.436;2023-02-13T00:52:24;98008.66;;;0.86;100.00
13604;BME280;24578;48.264;11.436;2023-02-13T00:55:25;98011.25;;;0.77;100.00
13604;BME280;24578;48.264;11.436;2023-02-13T00:58:26;98018.03;;;0.82;100.00
13604;BME280;24578;48.264;11.436;2023-02-13T01:01:26;98020.59;;;0.73;100.00
13604;BME280;24578;48.264;11.436;2023-02-13T01:04:27;98012.16;;;0.68;100.00
13604;BME280;24578;48.264;11.436;2023-02-13T01:07:27;98014.69;;;0.68;100.00
13604;BME280;24578;48.264;11.436;2023-02-13T01:10:28;98007.03;;;0.63;100.00
13604;BME280;24578;48.264;11.436;2023-02-13T01:13:29;98002.81;;;0.64;100.00
13604;BME280;24578;48.264;11.436;2023-02-13T01:16:29;98008.72;;;0.72;100.00
13604;BME280;24578;48.264;11.436;2023-02-13T01:19:30;98007.06;;;0.62;100.00
13604;BME280;24578;48.264;11.436;2023-02-13T01:22:31;98012.19;;;0.51;100.00
13604;BME280;24578;48.264;11.436;2023-02-13T01:25:31;98007.13;;;0.46;100.00
13604;BME280;24578;48.264;11.436;2023-02-13T01:28:32;98011.34;;;0.58;100.00
13604;BME280;24578;48.264;11.436;2023-02-13T01:31:33;98013.91;;;0.53;100.00
13604;BME280;24578;48.264;11.436;2023-02-13T01:34:34;98006.28;;;0.47;100.00
13604;BME280;24578;48.264;11.436;2023-02-13T01:37:34;98002.88;;;0.51;100.00
13604;BME280;24578;48.264;11.436;2023-02-13T01:40:35;98011.38;;;0.50;100.00
13604;BME280;24578;48.264;11.436;2023-02-13T01:43:54;98004.50;;;0.66;100.00
13604;BME280;24578;48.264;11.436;2023-02-13T01:46:55;97999.47;;;0.49;100.00
13604;BME280;24578;48.264;11.436;2023-02-13T01:50:07;97997.78;;;0.48;100.00
13604;BME280;24578;48.264;11.436;2023-02-13T01:56:32;97999.44;;;0.54;100.00
13604;BME280;24578;48.264;11.436;2023-02-13T01:59:58;98001.16;;;0.53;100.00
13604;BME280;24578;48.264;11.436;2023-02-13T02:03:07;98004.56;;;0.52;100.00
13604;BME280;24578;48.264;11.436;2023-02-13T02:06:18;97999.47;;;0.48;100.00
13604;BME280;24578;48.264;11.436;2023-02-13T02:09:26;98011.38;;;0.44;100.00
13604;BME280;24578;48.264;11.436;2023-02-13T02:13:22;98011.38;;;0.42;100.00
13604;BME280;24578;48.264;11.436;2023-02-13T02:15:57;98017.31;;;0.40;100.00
13604;BME280;24578;48.264;11.436;2023-02-13T02:19:03;98009.66;;;0.46;100.00
13604;BME280;24578;48.264;11.436;2023-02-13T02:35:30;98013.94;;;0.33;100.00
13604;BME280;24578;48.264;11.436;2023-02-13T02:44:57;98016.50;;;0.25;100.00
13604;BME280;24578;48.264;11.436;2023-02-13T02:51:40;98014.00;;;0.16;100.00
13604;BME280;24578;48.264;11.436;2023-02-13T02:54:56;98006.34;;;0.16;100.00
13604;BME280;24578;48.264;11.436;2023-02-13T02:58:17;98006.34;;;0.18;100.00
13604;BME280;24578;48.264;11.436;2023-02-13T03:01:39;98002.13;;;0.13;100.00
13604;BME280;24578;48.264;11.436;2023-02-13T03:05:01;98008.03;;;0.25;100.00
13604;BME280;24578;48.264;11.436;2023-02-13T03:08:21;98017.41;;;0.15;100.00
13604;BME280;24578;48.264;11.436;2023-02-13T03:11:47;98007.22;;;0.15;100.00
13604;BME280;24578;48.264;11.436;2023-02-13T03:15:08;98014.84;;;0.12;100.00
13604;BME280;24578;48.264;11.436;2023-02-13T03:18:09;98004.69;;;-0.01;100.00
13604;BME280;24578;48.264;11.436;2023-02-13T03:21:57;97997.06;;;0.03;100.00
13604;BME280;24578;48.264;11.436;2023-02-13T03:28:41;98016.56;;;0.02;100.00
13604;BME280;24578;48.264;11.436;2023-02-13T03:32:12;98025.06;;;-0.04;100.00
13604;BME280;24578;48.264;11.436;2023-02-13T03:45:38;98019.13;;;0.01;100.00
13604;BME280;24578;48.264;11.436;2023-02-13T03:48:54;98014.88;;;-0.01;100.00
13604;BME280;24578;48.264;11.436;2023-02-13T03:52:31;98014.88;;;0.04;100.00
13604;BME280;24578;48.264;11.436;2023-02-13T03:55:38;98012.34;;;-0.14;100.00
13604;BME280;24578;48.264;11.436;2023-02-13T03:59:01;98018.28;;;-0.14;100.00
13604;BME280;24578;48.264;11.436;2023-02-13T04:02:24;98014.88;;;-0.07;100.00
13604;BME280;24578;48.264;11.436;2023-02-13T04:05:34;98021.66;;;-0.10;100.00
13604;BME280;24578;48.264;11.436;2023-02-13T04:08:38;98022.53;;;-0.11;100.00
13604;BME280;24578;48.264;11.436;2023-02-13T04:15:02;98026.75;;;-0.10;100.00
13604;BME280;24578;48.264;11.436;2023-02-13T04:18:13;98023.41;;;-0.19;100.00
13604;BME280;24578;48.264;11.436;2023-02-13T04:21:14;98022.53;;;-0.14;100.00
13604;BME280;24578;48.264;11.436;2023-02-13T04:24:15;98027.63;;;-0.27;100.00
13604;BME280;24578;48.264;11.436;2023-02-13T04:27:18;98016.59;;;-0.37;100.00
13604;BME280;24578;48.264;11.436;2023-02-13T04:30:25;98027.63;;;-0.32;100.00
13604;BME280;24578;48.264;11.436;2023-02-13T04:33:25;98019.97;;;-0.38;100.00
13604;BME280;24578;48.264;11.436;2023-02-13T04:36:26;98031.84;;;-0.29;100.00
13604;BME280;24578;48.264;11.436;2023-02-13T04:39:26;98033.56;;;-0.26;100.00
13604;BME280;24578;48.264;11.436;2023-02-13T04:42:27;98028.47;;;-0.14;100.00
13604;BME280;24578;48.264;11.436;2023-02-13T04:45:27;98030.16;;;-0.05;100.00
13604;BME280;24578;48.264;11.436;2023-02-13T04:48:28;98032.69;;;-0.07;100.00
13604;BME280;24578;48.264;11.436;2023-02-13T04:51:29;98033.53;;;-0.16;100.00
13604;BME280;24578;48.264;11.436;2023-02-13T04:54:29;98035.25;;;-0.21;100.00
13604;BME280;24578;48.264;11.436;2023-02-13T04:57:30;98034.41;;;-0.20;100.00
13604;BME280;24578;48.264;11.436;2023-02-13T05:00:30;98038.63;;;-0.08;100.00
13604;BME280;24578;48.264;11.436;2023-02-13T05:03:31;98034.41;;;-0.07;100.00
13604;BME280;24578;48.264;11.436;2023-02-13T05:06:31;98023.38;;;-0.02;100.00
13604;BME280;24578;48.264;11.436;2023-02-13T05:09:32;98038.63;;;-0.23;100.00
13604;BME280;24578;48.264;11.436;2023-02-13T05:12:33;98032.72;;;-0.19;100.00
13604;BME280;24578;48.264;11.436;2023-02-13T05:15:33;98036.09;;;-0.08;100.00
13604;BME280;24578;48.264;11.436;2023-02-13T05:18:34;98039.50;;;-0.04;100.00
13604;BME280;24578;48.264;11.436;2023-02-13T05:21:34;98025.94;;;0.00;100.00
13604;BME280;24578;48.264;11.436;2023-02-13T05:24:54;98035.22;;;0.01;100.00
13604;BME280;24578;48.264;11.436;2023-02-13T05:27:55;98031.88;;;-0.01;100.00
13604;BME280;24578;48.264;11.436;2023-02-13T05:30:56;98030.13;;;0.09;100.00
13604;BME280;24578;48.264;11.436;2023-02-13T05:33:56;98036.94;;;0.08;100.00
13604;BME280;24578;48.264;11.436;2023-02-13T05:36:57;98034.38;;;0.14;100.00
13604;BME280;24578;48.264;11.436;2023-02-13T05:39:57;98032.69;;;0.18;100.00
13604;BME280;24578;48.264;11.436;2023-02-13T05:42:58;98039.47;;;0.19;100.00
13604;BME280;24578;48.264;11.436;2023-02-13T05:46:06;98030.97;;;0.17;100.00
13604;BME280;24578;48.264;11.436;2023-02-13T05:49:08;98047.97;;;0.18;100.00
13604;BME280;24578;48.264;11.436;2023-02-13T05:52:10;98041.16;;;0.19;100.00
13604;BME280;24578;48.264;11.436;2023-02-13T05:55:11;98042.03;;;0.19;100.00
13604;BME280;24578;48.264;11.436;2023-02-13T05:58:11;98046.25;;;0.20;100.00
13604;BME280;24578;48.264;11.436;2023-02-13T06:01:12;98035.22;;;0.21;100.00
13604;BME280;24578;48.264;11.436;2023-02-13T06:04:13;98043.72;;;0.17;100.00
13604;BME280;24578;48.264;11.436;2023-02-13T06:07:13;98046.25;;;0.17;100.00
13604;BME280;24578;48.264;11.436;2023-02-13T06:10:14;98042.00;;;0.10;100.00
13604;BME280;24578;48.264;11.436;2023-02-13T06:13:15;98051.38;;;0.08;100.00
13604;BME280;24578;48.264;11.436;2023-02-13T06:16:15;98041.19;;;0.12;100.00
13604;BME280;24578;48.264;11.436;2023-02-13T06:19:16;98056.44;;;0.03;100.00
13604;BME280;24578;48.264;11.436;2023-02-13T06:22:17;98059.84;;;0.13;100.00
13604;BME280;24578;48.264;11.436;2023-02-13T06:25:19;98052.22;;;0.19;100.00
13604;BME280;24578;48.264;11.436;2023-02-13T06:28:20;98051.34;;;0.19;100.00
13604;BME280;24578;48.264;11.436;2023-02-13T06:31:21;98064.09;;;0.16;100.00
13604;BME280;24578;48.264;11.436;2023-02-13T06:34:21;98075.13;;;0.19;100.00
13604;BME280;24578;48.264;11.436;2023-02-13T06:37:22;98072.59;;;0.19;100.00
13604;BME280;24578;48.264;11.436;2023-02-13T06:40:22;98081.94;;;0.20;100.00
13604;BME280;24578;48.264;11.436;2023-02-13T06:43:23;98084.44;;;0.26;100.00
13604;BME280;24578;48.264;11.436;2023-02-13T06:46:23;98080.22;;;0.27;100.00
13604;BME280;24578;48.264;11.436;2023-02-13T06:49:24;98070.00;;;0.33;100.00
13604;BME280;24578;48.264;11.436;2023-02-13T06:52:25;98082.78;;;0.22;100.00
13604;BME280;24578;48.264;11.436;2023-02-13T06:55:26;98089.56;;;0.23;100.00
13604;BME280;24578;48.264;11.436;2023-02-13T06:58:27;98077.66;;;0.28;100.00
13604;BME280;24578;48.264;11.436;2023-02-13T07:01:27;98090.38;;;0.32;100.00
13604;BME280;24578;48.264;11.436;2023-02-13T07:04:29;98098.88;;;0.34;100.00
13604;BME280;24578;48.264;11.436;2023-02-13T07:07:33;98094.63;;;0.36;100.00
13604;BME280;24578;48.264;11.436;2023-02-13T07:10:39;98071.69;;;0.40;100.00
13604;BME280;24578;48.264;11.436;2023-02-13T07:13:41;98089.50;;;0.42;100.00
13604;BME280;24578;48.264;11.436;2023-02-13T07:16:42;98088.66;;;0.51;100.00
13604;BME280;24578;48.264;11.436;2023-02-13T07:19:42;98101.38;;;0.48;100.00
13604;BME280;24578;48.264;11.436;2023-02-13T07:22:43;98105.63;;;0.58;100.00
13604;BME280;24578;48.264;11.436;2023-02-13T07:25:44;98097.13;;;0.60;100.00
13604;BME280;24578;48.264;11.436;2023-02-13T07:28:44;98103.06;;;0.66;100.00
13604;BME280;24578;48.264;11.436;2023-02-13T07:31:45;98107.31;;;0.67;100.00
13604;BME280;24578;48.264;11.436;2023-02-13T07:34:45;98114.09;;;0.69;100.00
13604;BME280;24578;48.264;11.436;2023-02-13T07:37:46;98120.84;;;0.80;100.00
13604;BME280;24578;48.264;11.436;2023-02-13T07:40:46;98119.19;;;0.75;100.00
13604;BME280;24578;48.264;11.436;2023-02-13T07:43:47;98120.88;;;0.75;100.00
13604;BME280;24578;48.264;11.436;2023-02-13T07:46:47;98112.38;;;0.73;100.00
13604;BME280;24578;48.264;11.436;2023-02-13T07:49:48;98132.78;;;0.68;100.00
13604;BME280;24578;48.264;11.436;2023-02-13T07:52:56;98129.38;;;0.74;100.00
13604;BME280;24578;48.264;11.436;2023-02-13T07:55:57;98131.06;;;0.81;100.00
13604;BME280;24578;48.264;11.436;2023-02-13T07:58:59;98130.22;;;0.76;100.00
13604;BME280;24578;48.264;11.436;2023-02-13T08:01:59;98123.41;;;0.84;100.00
13604;BME280;24578;48.264;11.436;2023-02-13T08:05:00;98130.19;;;0.88;100.00
13604;BME280;24578;48.264;11.436;2023-02-13T08:08:00;98131.88;;;0.96;100.00
13604;BME280;24578;48.264;11.436;2023-02-13T08:11:07;98130.97;;;1.03;100.00
13604;BME280;24578;48.264;11.436;2023-02-13T08:14:30;98126.75;;;1.03;100.00
13604;BME280;24578;48.264;11.436;2023-02-13T08:17:31;98133.53;;;1.12;100.00
13604;BME280;24578;48.264;11.436;2023-02-13T08:20:31;98127.56;;;1.13;100.00
13604;BME280;24578;48.264;11.436;2023-02-13T08:23:32;98130.06;;;1.24;100.00
13604;BME280;24578;48.264;11.436;2023-02-13T08:26:33;98128.31;;;1.39;100.00
13604;BME280;24578;48.264;11.436;2023-02-13T08:29:33;98128.31;;;1.39;100.00
13604;BME280;24578;48.264;11.436;2023-02-13T08:32:34;98126.56;;;1.42;100.00
13604;BME280;24578;48.264;11.436;2023-02-13T08:35:34;98118.06;;;1.40;100.00
13604;BME280;24578;48.264;11.436;2023-02-13T08:38:35;98125.72;;;1.43;100.00
13604;BME280;24578;48.264;11.436;2023-02-13T08:41:36;98124.81;;;1.50;100.00
13604;BME280;24578;48.264;11.436;2023-02-13T08:44:36;98120.59;;;1.46;100.00
13604;BME280;24578;48.264;11.436;2023-02-13T08:47:40;98134.19;;;1.50;100.00
13604;BME280;24578;48.264;11.436;2023-02-13T08:50:40;98129.13;;;1.42;100.00
13604;BME280;24578;48.264;11.436;2023-02-13T08:53:42;98133.31;;;1.49;100.00
13604;BME280;24578;48.264;11.436;2023-02-13T08:56:42;98128.22;;;1.49;100.00
13604;BME280;24578;48.264;11.436;2023-02-13T08:59:43;98132.44;;;1.57;100.00
13604;BME280;24578;48.264;11.436;2023-02-13T09:02:43;98135.00;;;1.60;100.00
13604;BME280;24578;48.264;11.436;2023-02-13T09:05:44;98138.31;;;1.71;100.00
13604;BME280;24578;48.264;11.436;2023-02-13T09:08:45;98134.84;;;1.81;100.00
13604;BME280;24578;48.264;11.436;2023-02-13T09:11:45;98136.59;;;1.76;100.00
13604;BME280;24578;48.264;11.436;2023-02-13T09:14:47;98138.25;;;1.82;100.00
13604;BME280;24578;48.264;11.436;2023-02-13T09:17:47;98143.22;;;1.99;100.00
13604;BME280;24578;48.264;11.436;2023-02-13T09:20:48;98148.47;;;1.82;100.00
13604;BME280;24578;48.264;11.436;2023-02-13T09:23:49;98151.00;;;1.85;100.00
13604;BME280;24578;48.264;11.436;2023-02-13T09:26:54;98149.31;;;1.84;100.00
13604;BME280;24578;48.264;11.436;2023-02-13T09:29:55;98156.91;;;1.93;100.00
13604;BME280;24578;48.264;11.436;2023-02-13T09:32:56;98154.31;;;1.95;100.00
13604;BME280;24578;48.264;11.436;2023-02-13T09:35:57;98154.28;;;2.01;100.00
13604;BME280;24578;48.264;11.436;2023-02-13T09:38:57;98160.22;;;2.09;100.00
13604;BME280;24578;48.264;11.436;2023-02-13T09:41:59;98159.34;;;2.09;100.00
13604;BME280;24578;48.264;11.436;2023-02-13T09:45:04;98143.97;;;2.13;100.00
13604;BME280;24578;48.264;11.436;2023-02-13T09:48:14;98142.28;;;2.12;100.00
13604;BME280;24578;48.264;11.436;2023-02-13T09:51:19;98154.19;;;2.15;100.00
13604;BME280;24578;48.264;11.436;2023-02-13T09:54:22;98135.44;;;2.15;100.00
13604;BME280;24578;48.264;11.436;2023-02-13T09:57:45;98141.41;;;2.13;100.00
13604;BME280;24578;48.264;11.436;2023-02-13T10:00:55;98148.25;;;2.13;100.00
13604;BME280;24578;48.264;11.436;2023-02-13T10:04:30;98156.78;;;2.12;100.00
13604;BME280;24578;48.264;11.436;2023-02-13T10:07:53;98153.41;;;2.05;100.00
13604;BME280;24578;48.264;11.436;2023-02-13T10:11:19;98152.53;;;2.08;100.00
13604;BME280;24578;48.264;11.436;2023-02-13T10:17:53;98158.44;;;2.15;100.00
13604;BME280;24578;48.264;11.436;2023-02-13T10:20:59;98138.81;;;2.20;100.00
13604;BME280;24578;48.264;11.436;2023-02-13T10:24:26;98151.47;;;2.34;100.00
13604;BME280;24578;48.264;11.436;2023-02-13T10:27:39;98148.06;;;2.36;100.00
13604;BME280;24578;48.264;11.436;2023-02-13T10:30:51;98143.75;;;2.43;100.00
13604;BME280;24578;48.264;11.436;2023-02-13T10:33:59;98143.59;;;2.57;100.00
13604;BME280;24578;48.264;11.436;2023-02-13T10:37:12;98135.06;;;2.59;100.00
13604;BME280;24578;48.264;11.436;2023-02-13T10:40:13;98129.06;;;2.62;100.00
13604;BME280;24578;48.264;11.436;2023-02-13T10:43:19;98137.72;;;2.49;100.00
13604;BME280;24578;48.264;11.436;2023-02-13T10:46:29;98142.78;;;2.55;100.00
13604;BME280;24578;48.264;11.436;2023-02-13T10:50:39;98135.03;;;2.61;100.00
13604;BME280;24578;48.264;11.436;2023-02-13T11:04:06;98128.66;;;2.12;100.00
13604;BME280;24578;48.264;11.436;2023-02-13T11:07:14;98125.03;;;2.35;100.00
13604;BME280;24578;48.264;11.436;2023-02-13T11:10:22;98116.38;;;2.51;100.00
13604;BME280;24578;48.264;11.436;2023-02-13T11:13:26;98113.72;;;2.64;100.00
13604;BME280;24578;48.264;11.436;2023-02-13T11:16:27;98115.34;;;2.72;100.00
13604;BME280;24578;48.264;11.436;2023-02-13T11:19:46;98109.53;;;2.56;100.00
13604;BME280;24578;48.264;11.436;2023-02-13T11:22:50;98105.94;;;2.73;100.00
13604;BME280;24578;48.264;11.436;2023-02-13T11:26:08;98110.91;;;2.87;100.00
13604;BME280;24578;48.264;11.436;2023-02-13T11:29:36;98107.41;;;2.94;100.00
13604;BME280;24578;48.264;11.436;2023-02-13T11:32:37;98112.56;;;2.91;100.00
13604;BME280;24578;48.264;11.436;2023-02-13T11:35:37;98109.13;;;2.92;100.00
13604;BME280;24578;48.264;11.436;2023-02-13T11:38:38;98103.91;;;3.03;100.00
13604;BME280;24578;48.264;11.436;2023-02-13T11:41:42;98109.81;;;3.07;100.00
13604;BME280;24578;48.264;11.436;2023-02-13T11:44:49;98112.38;;;3.08;100.00
13604;BME280;24578;48.264;11.436;2023-02-13T11:47:54;98109.03;;;3.01;100.00
13604;BME280;24578;48.264;11.436;2023-02-13T11:50:55;98114.09;;;3.04;100.00
13604;BME280;24578;48.264;11.436;2023-02-13T11:53:56;98113.28;;;3.01;100.00
13604;BME280;24578;48.264;11.436;2023-02-13T11:57:27;98112.53;;;2.94;100.00
13604;BME280;24578;48.264;11.436;2023-02-13T12:03:31;98115.16;;;2.86;100.00
13604;BME280;24578;48.264;11.436;2023-02-13T12:06:33;98104.22;;;2.73;100.00
13604;BME280;24578;48.264;11.436;2023-02-13T12:09:40;98109.31;;;2.78;100.00
13604;BME280;24578;48.264;11.436;2023-02-13T12:12:46;98112.84;;;2.63;100.00
13604;BME280;24578;48.264;11.436;2023-02-13T12:16:02;98103.50;;;2.62;100.00
13604;BME280;24578;48.264;11.436;2023-02-13T12:19:13;98106.13;;;2.54;100.00
13604;BME280;24578;48.264;11.436;2023-02-13T12:22:28;98106.84;;;2.67;100.00
13604;BME280;24578;48.264;11.436;2023-02-13T12:26:17;98101.75;;;2.66;100.00
13604;BME280;24578;48.264;11.436;2023-02-13T12:29:13;98100.03;;;2.69;100.00
13604;BME280;24578;48.264;11.436;2023-02-13T12:32:20;98097.34;;;2.80;100.00
13604;BME280;24578;48.264;11.436;2023-02-13T12:35:48;98088.88;;;2.75;100.00
13604;BME280;24578;48.264;11.436;2023-02-13T12:43:06;98077.47;;;3.02;100.00
13604;BME280;24578;48.264;11.436;2023-02-13T12:49:29;98073.69;;;3.31;100.00
13604;BME280;24578;48.264;11.436;2023-02-13T12:53:08;98070.28;;;3.29;100.00
13604;BME280;24578;48.264;11.436;2023-02-13T12:56:44;98068.72;;;3.19;100.00
13604;BME280;24578;48.264;11.436;2023-02-13T13:03:38;98071.41;;;3.11;100.00
13604;BME280;24578;48.264;11.436;2023-02-13T13:07:18;98062.13;;;3.02;
13604;BME280;24578;48.264;11.436;2023-02-13T13:13:59;98066.59;;;2.85;100.00
13604;BME280;24578;48.264;11.436;2023-02-13T13:27:25;98065.72;;;2.84;100.00
13604;BME280;24578;48.264;11.436;2023-02-13T13:30:30;98070.75;;;2.92;100.00
13604;BME280;24578;48.264;11.436;2023-02-13T13:33:32;98072.41;;;2.96;100.00
13604;BME280;24578;48.264;11.436;2023-02-13T13:39:59;98076.66;;;3.00;100.00
13604;BME280;24578;48.264;11.436;2023-02-13T13:49:49;98080.47;;;2.62;100.00
13604;BME280;24578;48.264;11.436;2023-02-13T13:53:13;98082.94;;;2.71;100.00
13604;BME280;24578;48.264;11.436;2023-02-13T13:56:15;98070.28;;;2.61;100.00
13604;BME280;24578;48.264;11.436;2023-02-13T13:59:17;98074.47;;;2.66;100.00
13604;BME280;24578;48.264;11.436;2023-02-13T14:02:25;98075.19;;;2.78;100.00
13604;BME280;24578;48.264;11.436;2023-02-13T14:05:35;98063.31;;;2.72;100.00
13604;BME280;24578;48.264;11.436;2023-02-13T14:08:58;98072.69;;;2.73;100.00
13604;BME280;24578;48.264;11.436;2023-02-13T14:18:46;98064.47;;;2.46;100.00
13604;BME280;24578;48.264;11.436;2023-02-13T14:21:47;98067.84;;;2.47;100.00
13604;BME280;24578;48.264;11.436;2023-02-13T14:25:03;98065.38;;;2.39;100.00
13604;BME280;24578;48.264;11.436;2023-02-13T14:28:05;98060.53;;;2.11;100.00
13604;BME280;24578;48.264;11.436;2023-02-13T14:31:34;98057.03;;;2.21;100.00
13604;BME280;24578;48.264;11.436;2023-02-13T14:34:36;98057.22;;;2.01;100.00
13604;BME280;24578;48.264;11.436;2023-02-13T14:37:50;98070.00;;;1.98;100.00
13604;BME280;24578;48.264;11.436;2023-02-13T14:40:52;98060.69;;;1.92;100.00
13604;BME280;24578;48.264;11.436;2023-02-13T14:43:54;98059.81;;;1.96;100.00
13604;BME280;24578;48.264;11.436;2023-02-13T14:46:57;98063.91;;;2.16;100.00
13604;BME280;24578;48.264;11.436;2023-02-13T14:50:02;98050.22;;;2.22;100.00
13604;BME280;24578;48.264;11.436;2023-02-13T14:53:15;98055.97;;;2.42;100.00
13604;BME280;24578;48.264;11.436;2023-02-13T14:56:19;98052.63;;;2.37;100.00
13604;BME280;24578;48.264;11.436;2023-02-13T14:59:25;98043.38;;;2.25;100.00
13604;BME280;24578;48.264;11.436;2023-02-13T15:02:41;98045.84;;;2.33;100.00
13604;BME280;24578;48.264;11.436;2023-02-13T15:05:52;98049.13;;;2.46;100.00
13604;BME280;24578;48.264;11.436;2023-02-13T15:08:55;98048.31;;;2.41;100.00
13604;BME280;24578;48.264;11.436;2023-02-13T15:11:59;98046.69;;;2.34;100.00
13604;BME280;24578;48.264;11.436;2023-02-13T15:15:01;98045.84;;;2.33;100.00
13604;BME280;24578;48.264;11.436;2023-02-13T15:18:08;98047.50;;;2.40;100.00
13604;BME280;24578;48.264;11.436;2023-02-13T15:21:20;98042.41;;;2.37;100.00
13604;BME280;24578;48.264;11.436;2023-02-13T15:24:22;98036.41;;;2.40;100.00
13604;BME280;24578;48.264;11.436;2023-02-13T15:27:29;98040.69;;;2.39;100.00
13604;BME280;24578;48.264;11.436;2023-02-13T15:30:35;98039.00;;;2.35;100.00
13604;BME280;24578;48.264;11.436;2023-02-13T15:33:44;98043.34;;;2.27;100.00
13604;BME280;24578;48.264;11.436;2023-02-13T15:36:46;98035.72;;;2.22;100.00
13604;BME280;24578;48.264;11.436;2023-02-13T15:39:48;98031.56;;;2.13;100.00
13604;BME280;24578;48.264;11.436;2023-02-13T15:42:49;98030.81;;;2.02;100.00
13604;BME280;24578;48.264;11.436;2023-02-13T15:45:50;98031.63;;;2.07;100.00
13604;BME280;24578;48.264;11.436;2023-02-13T15:48:57;98044.34;;;2.12;100.00
13604;BME280;24578;48.264;11.436;2023-02-13T15:52:29;98042.63;;;2.12;100.00
13604;BME280;24578;48.264;11.436;2023-02-13T15:55:32;98042.91;;;1.83;100.00
13604;BME280;24578;48.264;11.436;2023-02-13T15:58:35;98043.81;;;1.77;100.00
13604;BME280;24578;48.264;11.436;2023-02-13T16:01:36;98044.59;;;1.82;100.00
13604;BME280;24578;48.264;11.436;2023-02-13T16:04:39;98041.97;;;1.90;100.00
13604;BME280;24578;48.264;11.436;2023-02-13T16:07:58;98047.09;;;1.92;100.00
13604;BME280;24578;48.264;11.436;2023-02-13T16:14:22;98053.00;;;1.98;100.00
13604;BME280;24578;48.264;11.436;2023-02-13T16:17:32;98059.84;;;1.92;100.00
13604;BME280;24578;48.264;11.436;2023-02-13T16:20:34;98050.75;;;1.60;100.00
13604;BME280;24578;48.264;11.436;2023-02-13T16:23:35;98044.66;;;1.76;100.00
13604;BME280;24578;48.264;11.436;2023-02-13T16:26:36;98060.06;;;1.65;100.00
13604;BME280;24578;48.264;11.436;2023-02-13T16:29:45;98053.19;;;1.74;100.00
13604;BME280;24578;48.264;11.436;2023-02-13T16:32:49;98052.41;;;1.62;100.00
13604;BME280;24578;48.264;11.436;2023-02-13T16:35:57;98055.03;;;1.55;100.00
13604;BME280;24578;48.264;11.436;2023-02-13T16:39:09;98057.53;;;1.62;100.00
13604;BME280;24578;48.264;11.436;2023-02-13T16:42:18;98060.00;;;1.72;100.00
13604;BME280;24578;48.264;11.436;2023-02-13T16:45:22;98060.97;;;1.57;100.00
13604;BME280;24578;48.264;11.436;2023-02-13T16:48:23;98069.44;;;1.60;100.00
13604;BME280;24578;48.264;11.436;2023-02-13T16:58:02;98056.63;;;1.68;100.00
13604;BME280;24578;48.264;11.436;2023-02-13T17:01:04;98063.38;;;1.77;100.00
13604;BME280;24578;48.264;11.436;2023-02-13T17:04:21;98067.56;;;1.82;100.00
13604;BME280;24578;48.264;11.436;2023-02-13T17:07:27;98060.00;;;1.70;100.00
13604;BME280;24578;48.264;11.436;2023-02-13T17:10:33;98060.09;;;1.59;100.00
13604;BME280;24578;48.264;11.436;2023-02-13T17:13:34;98056.66;;;1.66;100.00
13604;BME280;24578;48.264;11.436;2023-02-13T17:16:35;98065.22;;;1.55;100.00
13604;BME280;24578;48.264;11.436;2023-02-13T17:19:35;98069.56;;;1.43;100.00
13604;BME280;24578;48.264;11.436;2023-02-13T17:22:39;98070.44;;;1.39;100.00
13604;BME280;24578;48.264;11.436;2023-02-13T17:25:43;98074.69;;;1.40;100.00
13604;BME280;24578;48.264;11.436;2023-02-13T17:28:48;98073.81;;;1.44;100.00
13604;BME280;24578;48.264;11.436;2023-02-13T17:31:53;98077.22;;;1.43;100.00
13604;BME280;24578;48.264;11.436;2023-02-13T17:34:55;98079.03;;;1.26;100.00
13604;BME280;24578;48.264;11.436;2023-02-13T17:37:56;98068.81;;;1.29;100.00
13604;BME280;24578;48.264;11.436;2023-02-13T17:40:57;98067.06;;;1.34;100.00
13604;BME280;24578;48.264;11.436;2023-02-13T17:43:57;98064.47;;;1.40;100.00
13604;BME280;24578;48.264;11.436;2023-02-13T17:46:58;98060.19;;;1.45;100.00
13604;BME280;24578;48.264;11.436;2023-02-13T17:49:58;98064.53;;;1.29;100.00
13604;BME280;24578;48.264;11.436;2023-02-13T17:53:20;98064.59;;;1.20;100.00
13604;BME280;24578;48.264;11.436;2023-02-13T17:56:22;98066.34;;;1.16;100.00
13604;BME280;24578;48.264;11.436;2023-02-13T17:59:22;98078.19;;;1.20;100.00
13604;BME280;24578;48.264;11.436;2023-02-13T18:02:23;98076.53;;;1.16;100.00
13604;BME280;24578;48.264;11.436;2023-02-13T18:05:27;98073.13;;;1.10;100.00